sensor_id;sensor_type;location;lat;lon;timestamp;P1;durP1;ratioP1;P2;durP2;ratioP2
65033;SDS011;51601;51.356;12.458;2023-05-16T00:03:36;13.57;;;6.67;;
65033;SDS011;51601;51.356;12.458;2023-05-16T00:07:54;15.25;;;7.50;;
65033;SDS011;51601;51.356;12.458;2023-05-16T00:12:12;12.15;;;7.13;;
65033;SDS011;51601;51.356;12.458;2023-05-16T00:16:35;12.93;;;7.28;;
65033;SDS011;51601;51.356;12.458;2023-05-16T00:20:55;12.63;;;7.53;;
65033;SDS011;51601;51.356;12.458;2023-05-16T00:25:13;12.93;;;7.45;;
65033;SDS011;51601;51.356;12.458;2023-05-16T00:29:31;14.23;;;7.43;;
65033;SDS011;51601;51.356;12.458;2023-05-16T00:33:53;13.00;;;7.67;;
65033;SDS011;51601;51.356;12.458;2023-05-16T00:38:13;14.07;;;8.32;;
65033;SDS011;51601;51.356;12.458;2023-05-16T00:42:34;14.48;;;7.93;;
65033;SDS011;51601;51.356;12.458;2023-05-16T00:46:52;12.43;;;7.70;;
65033;SDS011;51601;51.356;12.458;2023-05-16T00:51:12;13.30;;;7.55;;
65033;SDS011;51601;51.356;12.458;2023-05-16T00:55:31;13.50;;;7.55;;
65033;SDS011;51601;51.356;12.458;2023-05-16T00:59:50;13.75;;;7.65;;
65033;SDS011;51601;51.356;12.458;2023-05-16T01:04:07;14.47;;;7.80;;
65033;SDS011;51601;51.356;12.458;2023-05-16T01:08:27;12.98;;;7.75;;
65033;SDS011;51601;51.356;12.458;2023-05-16T01:12:47;12.88;;;7.63;;
65033;SDS011;51601;51.356;12.458;2023-05-16T01:17:25;12.63;;;7.87;;
65033;SDS011;51601;51.356;12.458;2023-05-16T01:21:58;13.80;;;8.30;;
65033;SDS011;51601;51.356;12.458;2023-05-16T01:26:23;13.10;;;7.90;;
65033;SDS011;51601;51.356;12.458;2023-05-16T01:30:42;13.00;;;7.70;;
65033;SDS011;51601;51.356;12.458;2023-05-16T01:35:00;13.82;;;7.72;;
65033;SDS011;51601;51.356;12.458;2023-05-16T01:39:19;13.57;;;7.78;;
65033;SDS011;51601;51.356;12.458;2023-05-16T01:43:45;14.25;;;7.90;;
65033;SDS011;51601;51.356;12.458;2023-05-16T01:48:07;15.43;;;7.77;;
65033;SDS011;51601;51.356;12.458;2023-05-16T01:52:30;13.32;;;7.55;;
65033;SDS011;51601;51.356;12.458;2023-05-16T01:56:55;15.60;;;8.23;;
65033;SDS011;51601;51.356;12.458;2023-05-16T02:01:14;13.70;;;8.07;;
65033;SDS011;51601;51.356;12.458;2023-05-16T02:05:34;13.27;;;7.63;;
65033;SDS011;51601;51.356;12.458;2023-05-16T02:09:52;14.20;;;7.72;;
65033;SDS011;51601;51.356;12.458;2023-05-16T02:14:10;15.17;;;7.60;;
65033;SDS011;51601;51.356;12.458;2023-05-16T02:18:30;13.93;;;7.82;;
65033;SDS011;51601;51.356;12.458;2023-05-16T02:22:49;13.95;;;7.32;;
65033;SDS011;51601;51.356;12.458;2023-05-16T02:27:07;14.50;;;8.00;;
65033;SDS011;51601;51.356;12.458;2023-05-16T02:31:26;14.27;;;7.40;;
65033;SDS011;51601;51.356;12.458;2023-05-16T02:35:48;15.25;;;8.10;;
65033;SDS011;51601;51.356;12.458;2023-05-16T02:40:08;15.27;;;8.23;;
65033;SDS011;51601;51.356;12.458;2023-05-16T02:44:29;18.87;;;9.37;;
65033;SDS011;51601;51.356;12.458;2023-05-16T02:48:47;17.55;;;9.02;;
65033;SDS011;51601;51.356;12.458;2023-05-16T02:53:06;18.52;;;9.60;;
65033;SDS011;51601;51.356;12.458;2023-05-16T02:57:26;19.07;;;9.80;;
65033;SDS011;51601;51.356;12.458;2023-05-16T03:01:44;20.70;;;10.38;;
65033;SDS011;51601;51.356;12.458;2023-05-16T03:06:02;22.08;;;11.18;;
65033;SDS011;51601;51.356;12.458;2023-05-16T03:10:22;21.98;;;11.80;;
65033;SDS011;51601;51.356;12.458;2023-05-16T03:14:41;24.87;;;12.20;;
65033;SDS011;51601;51.356;12.458;2023-05-16T03:19:00;24.48;;;12.65;;
65033;SDS011;51601;51.356;12.458;2023-05-16T03:23:17;25.00;;;12.07;;
65033;SDS011;51601;51.356;12.458;2023-05-16T03:27:37;28.37;;;14.60;;
65033;SDS011;51601;51.356;12.458;2023-05-16T03:31:57;27.38;;;12.98;;
65033;SDS011;51601;51.356;12.458;2023-05-16T03:36:15;30.67;;;14.48;;
65033;SDS011;51601;51.356;12.458;2023-05-16T03:40:34;28.60;;;14.33;;
65033;SDS011;51601;51.356;12.458;2023-05-16T03:44:52;27.02;;;13.98;;
65033;SDS011;51601;51.356;12.458;2023-05-16T03:49:12;26.77;;;13.25;;
65033;SDS011;51601;51.356;12.458;2023-05-16T03:53:36;25.48;;;12.57;;
65033;SDS011;51601;51.356;12.458;2023-05-16T03:57:54;28.33;;;14.50;;
65033;SDS011;51601;51.356;12.458;2023-05-16T04:02:14;25.50;;;12.98;;
65033;SDS011;51601;51.356;12.458;2023-05-16T04:06:33;24.80;;;12.57;;
65033;SDS011;51601;51.356;12.458;2023-05-16T04:10:52;25.07;;;12.37;;
65033;SDS011;51601;51.356;12.458;2023-05-16T04:15:10;24.08;;;11.90;;
65033;SDS011;51601;51.356;12.458;2023-05-16T04:19:29;22.20;;;11.77;;
65033;SDS011;51601;51.356;12.458;2023-05-16T04:23:49;23.13;;;11.07;;
65033;SDS011;51601;51.356;12.458;2023-05-16T04:28:07;20.27;;;9.93;;
65033;SDS011;51601;51.356;12.458;2023-05-16T04:32:25;21.60;;;10.63;;
65033;SDS011;51601;51.356;12.458;2023-05-16T04:36:44;17.63;;;8.27;;
65033;SDS011;51601;51.356;12.458;2023-05-16T04:41:04;17.53;;;8.90;;
65033;SDS011;51601;51.356;12.458;2023-05-16T04:45:22;18.50;;;9.70;;
65033;SDS011;51601;51.356;12.458;2023-05-16T04:49:40;17.08;;;8.80;;
65033;SDS011;51601;51.356;12.458;2023-05-16T04:54:00;16.27;;;9.00;;
65033;SDS011;51601;51.356;12.458;2023-05-16T04:58:19;15.35;;;7.93;;
65033;SDS011;51601;51.356;12.458;2023-05-16T05:02:41;18.27;;;8.93;;
65033;SDS011;51601;51.356;12.458;2023-05-16T05:06:59;16.90;;;8.57;;
65033;SDS011;51601;51.356;12.458;2023-05-16T05:11:18;17.75;;;8.38;;
65033;SDS011;51601;51.356;12.458;2023-05-16T05:15:38;16.35;;;7.65;;
65033;SDS011;51601;51.356;12.458;2023-05-16T05:19:56;17.08;;;8.65;;
65033;SDS011;51601;51.356;12.458;2023-05-16T05:24:17;16.80;;;8.03;;
65033;SDS011;51601;51.356;12.458;2023-05-16T05:28:36;15.85;;;8.00;;
65033;SDS011;51601;51.356;12.458;2023-05-16T05:32:56;13.82;;;7.43;;
65033;SDS011;51601;51.356;12.458;2023-05-16T05:37:14;13.87;;;7.33;;
65033;SDS011;51601;51.356;12.458;2023-05-16T05:41:32;15.15;;;7.00;;
65033;SDS011;51601;51.356;12.458;2023-05-16T05:45:52;12.88;;;7.13;;
65033;SDS011;51601;51.356;12.458;2023-05-16T05:50:11;13.67;;;6.97;;
65033;SDS011;51601;51.356;12.458;2023-05-16T05:54:29;14.55;;;6.65;;
65033;SDS011;51601;51.356;12.458;2023-05-16T05:58:48;14.65;;;7.00;;
65033;SDS011;51601;51.356;12.458;2023-05-16T06:03:07;12.27;;;6.20;;
65033;SDS011;51601;51.356;12.458;2023-05-16T06:07:27;12.20;;;6.57;;
65033;SDS011;51601;51.356;12.458;2023-05-16T06:11:45;12.10;;;6.38;;
65033;SDS011;51601;51.356;12.458;2023-05-16T06:16:03;11.02;;;6.13;;
65033;SDS011;51601;51.356;12.458;2023-05-16T06:20:25;10.57;;;5.67;;
65033;SDS011;51601;51.356;12.458;2023-05-16T06:24:45;11.55;;;5.93;;
65033;SDS011;51601;51.356;12.458;2023-05-16T06:29:03;11.10;;;6.07;;
65033;SDS011;51601;51.356;12.458;2023-05-16T06:33:21;10.73;;;6.00;;
65033;SDS011;51601;51.356;12.458;2023-05-16T06:37:41;10.95;;;4.80;;
65033;SDS011;51601;51.356;12.458;2023-05-16T06:42:00;9.90;;;4.78;;
65033;SDS011;51601;51.356;12.458;2023-05-16T06:46:21;9.35;;;4.38;;
65033;SDS011;51601;51.356;12.458;2023-05-16T06:50:40;7.43;;;3.67;;
65033;SDS011;51601;51.356;12.458;2023-05-16T06:54:59;7.80;;;4.05;;
65033;SDS011;51601;51.356;12.458;2023-05-16T06:59:19;8.70;;;4.20;;
65033;SDS011;51601;51.356;12.458;2023-05-16T07:03:37;7.90;;;4.03;;
65033;SDS011;51601;51.356;12.458;2023-05-16T07:07:55;7.53;;;3.67;;
65033;SDS011;51601;51.356;12.458;2023-05-16T07:12:14;8.40;;;3.90;;
65033;SDS011;51601;51.356;12.458;2023-05-16T07:16:34;8.60;;;4.10;;
65033;SDS011;51601;51.356;12.458;2023-05-16T07:20:52;8.95;;;3.80;;
65033;SDS011;51601;51.356;12.458;2023-05-16T07:25:10;9.25;;;4.25;;
65033;SDS011;51601;51.356;12.458;2023-05-16T07:29:33;8.07;;;4.30;;
65033;SDS011;51601;51.356;12.458;2023-05-16T07:33:52;9.27;;;4.60;;
65033;SDS011;51601;51.356;12.458;2023-05-16T07:38:11;8.35;;;4.15;;
65033;SDS011;51601;51.356;12.458;2023-05-16T07:42:29;13.00;;;4.03;;
65033;SDS011;51601;51.356;12.458;2023-05-16T07:46:51;9.27;;;4.47;;
65033;SDS011;51601;51.356;12.458;2023-05-16T07:51:11;7.68;;;3.90;;
65033;SDS011;51601;51.356;12.458;2023-05-16T07:55:29;8.75;;;4.18;;
65033;SDS011;51601;51.356;12.458;2023-05-16T07:59:47;9.53;;;4.40;;
65033;SDS011;51601;51.356;12.458;2023-05-16T08:04:10;8.35;;;4.25;;
65033;SDS011;51601;51.356;12.458;2023-05-16T08:08:29;6.80;;;3.70;;
65033;SDS011;51601;51.356;12.458;2023-05-16T08:12:47;6.82;;;3.03;;
65033;SDS011;51601;51.356;12.458;2023-05-16T08:17:05;7.93;;;3.37;;
65033;SDS011;51601;51.356;12.458;2023-05-16T08:21:25;8.30;;;2.80;;
65033;SDS011;51601;51.356;12.458;2023-05-16T08:25:44;8.25;;;2.83;;
65033;SDS011;51601;51.356;12.458;2023-05-16T08:30:03;6.93;;;2.60;;
65033;SDS011;51601;51.356;12.458;2023-05-16T08:34:24;7.20;;;3.20;;
65033;SDS011;51601;51.356;12.458;2023-05-16T08:38:43;7.35;;;3.20;;
65033;SDS011;51601;51.356;12.458;2023-05-16T08:43:03;6.97;;;2.80;;
65033;SDS011;51601;51.356;12.458;2023-05-16T08:47:21;7.35;;;2.78;;
65033;SDS011;51601;51.356;12.458;2023-05-16T08:51:42;6.35;;;2.63;;
65033;SDS011;51601;51.356;12.458;2023-05-16T08:56:05;6.88;;;2.83;;
65033;SDS011;51601;51.356;12.458;2023-05-16T09:00:24;5.17;;;2.07;;
65033;SDS011;51601;51.356;12.458;2023-05-16T09:04:42;5.57;;;2.42;;
65033;SDS011;51601;51.356;12.458;2023-05-16T09:09:03;5.13;;;2.08;;
65033;SDS011;51601;51.356;12.458;2023-05-16T09:13:26;7.73;;;2.20;;
65033;SDS011;51601;51.356;12.458;2023-05-16T09:17:49;5.82;;;1.80;;
65033;SDS011;51601;51.356;12.458;2023-05-16T09:22:07;5.07;;;1.80;;
65033;SDS011;51601;51.356;12.458;2023-05-16T09:26:25;5.67;;;2.00;;
65033;SDS011;51601;51.356;12.458;2023-05-16T09:30:45;6.80;;;2.30;;
65033;SDS011;51601;51.356;12.458;2023-05-16T09:35:05;6.10;;;2.40;;
65033;SDS011;51601;51.356;12.458;2023-05-16T09:39:45;5.63;;;2.50;;
65033;SDS011;51601;51.356;12.458;2023-05-16T09:44:05;6.37;;;2.63;;
65033;SDS011;51601;51.356;12.458;2023-05-16T09:48:24;5.78;;;2.22;;
65033;SDS011;51601;51.356;12.458;2023-05-16T09:52:44;5.35;;;2.08;;
65033;SDS011;51601;51.356;12.458;2023-05-16T09:57:02;5.43;;;2.47;;
65033;SDS011;51601;51.356;12.458;2023-05-16T10:01:20;5.70;;;2.20;;
65033;SDS011;51601;51.356;12.458;2023-05-16T10:05:43;6.00;;;1.90;;
65033;SDS011;51601;51.356;12.458;2023-05-16T10:10:05;5.40;;;2.00;;
65033;SDS011;51601;51.356;12.458;2023-05-16T10:14:23;7.80;;;2.15;;
65033;SDS011;51601;51.356;12.458;2023-05-16T10:18:42;5.95;;;2.85;;
65033;SDS011;51601;51.356;12.458;2023-05-16T10:23:01;6.85;;;2.50;;
65033;SDS011;51601;51.356;12.458;2023-05-16T10:27:21;7.70;;;2.93;;
65033;SDS011;51601;51.356;12.458;2023-05-16T10:31:42;7.38;;;2.33;;
65033;SDS011;51601;51.356;12.458;2023-05-16T10:36:00;7.70;;;1.90;;
65033;SDS011;51601;51.356;12.458;2023-05-16T10:40:23;5.83;;;2.00;;
65033;SDS011;51601;51.356;12.458;2023-05-16T10:44:42;4.18;;;1.85;;
65033;SDS011;51601;51.356;12.458;2023-05-16T10:49:19;6.30;;;1.88;;
65033;SDS011;51601;51.356;12.458;2023-05-16T10:53:37;6.37;;;1.70;;
65033;SDS011;51601;51.356;12.458;2023-05-16T10:57:57;6.22;;;2.25;;
65033;SDS011;51601;51.356;12.458;2023-05-16T11:02:23;6.47;;;1.90;;
65033;SDS011;51601;51.356;12.458;2023-05-16T11:06:50;6.90;;;1.90;;
65033;SDS011;51601;51.356;12.458;2023-05-16T11:20:49;5.25;;;1.90;;
65033;SDS011;51601;51.356;12.458;2023-05-16T11:25:09;6.23;;;2.20;;
65033;SDS011;51601;51.356;12.458;2023-05-16T11:29:27;6.32;;;2.13;;
65033;SDS011;51601;51.356;12.458;2023-05-16T11:33:48;8.48;;;2.00;;
65033;SDS011;51601;51.356;12.458;2023-05-16T11:38:14;6.23;;;1.90;;
65033;SDS011;51601;51.356;12.458;2023-05-16T11:42:35;6.93;;;2.10;;
65033;SDS011;51601;51.356;12.458;2023-05-16T11:46:55;6.38;;;2.03;;
65033;SDS011;51601;51.356;12.458;2023-05-16T11:51:13;7.28;;;1.70;;
65033;SDS011;51601;51.356;12.458;2023-05-16T11:55:35;8.03;;;1.70;;
65033;SDS011;51601;51.356;12.458;2023-05-16T12:00:00;7.63;;;2.30;;
65033;SDS011;51601;51.356;12.458;2023-05-16T12:04:22;6.07;;;1.60;;
65033;SDS011;51601;51.356;12.458;2023-05-16T12:08:48;6.07;;;2.20;;
65033;SDS011;51601;51.356;12.458;2023-05-16T12:13:09;8.60;;;2.00;;
65033;SDS011;51601;51.356;12.458;2023-05-16T12:17:29;8.77;;;3.58;;
65033;SDS011;51601;51.356;12.458;2023-05-16T12:21:47;7.80;;;2.10;;
65033;SDS011;51601;51.356;12.458;2023-05-16T12:26:08;6.85;;;2.33;;
65033;SDS011;51601;51.356;12.458;2023-05-16T12:30:28;8.15;;;1.92;;
65033;SDS011;51601;51.356;12.458;2023-05-16T12:34:48;6.85;;;1.77;;
65033;SDS011;51601;51.356;12.458;2023-05-16T12:39:10;9.37;;;1.83;;
65033;SDS011;51601;51.356;12.458;2023-05-16T12:43:29;8.82;;;2.05;;
65033;SDS011;51601;51.356;12.458;2023-05-16T12:47:49;8.15;;;1.80;;
65033;SDS011;51601;51.356;12.458;2023-05-16T12:52:09;5.13;;;1.50;;
65033;SDS011;51601;51.356;12.458;2023-05-16T12:56:33;8.77;;;1.83;;
65033;SDS011;51601;51.356;12.458;2023-05-16T13:00:51;8.80;;;2.13;;
65033;SDS011;51601;51.356;12.458;2023-05-16T13:05:10;8.50;;;2.00;;
65033;SDS011;51601;51.356;12.458;2023-05-16T13:09:30;7.57;;;1.67;;
65033;SDS011;51601;51.356;12.458;2023-05-16T13:13:48;8.15;;;1.67;;
65033;SDS011;51601;51.356;12.458;2023-05-16T13:18:06;9.48;;;2.15;;
65033;SDS011;51601;51.356;12.458;2023-05-16T13:22:26;6.57;;;1.73;;
65033;SDS011;51601;51.356;12.458;2023-05-16T13:26:45;6.35;;;1.60;;
65033;SDS011;51601;51.356;12.458;2023-05-16T13:31:03;10.45;;;1.75;;
65033;SDS011;51601;51.356;12.458;2023-05-16T13:35:21;7.27;;;1.60;;
65033;SDS011;51601;51.356;12.458;2023-05-16T13:39:41;6.80;;;1.50;;
65033;SDS011;51601;51.356;12.458;2023-05-16T13:44:04;6.57;;;1.40;;
65033;SDS011;51601;51.356;12.458;2023-05-16T13:48:22;7.10;;;1.40;;
65033;SDS011;51601;51.356;12.458;2023-05-16T13:52:40;6.78;;;2.00;;
65033;SDS011;51601;51.356;12.458;2023-05-16T13:57:02;7.82;;;1.73;;
65033;SDS011;51601;51.356;12.458;2023-05-16T14:01:22;6.93;;;1.65;;
65033;SDS011;51601;51.356;12.458;2023-05-16T14:05:40;5.17;;;1.60;;
65033;SDS011;51601;51.356;12.458;2023-05-16T14:09:58;8.68;;;1.67;;
65033;SDS011;51601;51.356;12.458;2023-05-16T14:14:20;8.65;;;1.70;;
65033;SDS011;51601;51.356;12.458;2023-05-16T14:18:37;5.83;;;1.60;;
65033;SDS011;51601;51.356;12.458;2023-05-16T14:22:55;5.82;;;1.55;;
65033;SDS011;51601;51.356;12.458;2023-05-16T14:27:14;6.70;;;1.65;;
65033;SDS011;51601;51.356;12.458;2023-05-16T14:31:33;8.00;;;1.70;;
65033;SDS011;51601;51.356;12.458;2023-05-16T14:35:56;6.15;;;1.38;;
65033;SDS011;51601;51.356;12.458;2023-05-16T14:40:14;5.25;;;1.50;;
65033;SDS011;51601;51.356;12.458;2023-05-16T14:44:32;7.40;;;2.10;;
65033;SDS011;51601;51.356;12.458;2023-05-16T14:48:54;7.63;;;2.50;;
65033;SDS011;51601;51.356;12.458;2023-05-16T14:53:14;8.82;;;2.35;;
65033;SDS011;51601;51.356;12.458;2023-05-16T14:57:34;7.30;;;1.80;;
65033;SDS011;51601;51.356;12.458;2023-05-16T15:01:53;7.90;;;1.87;;
65033;SDS011;51601;51.356;12.458;2023-05-16T15:06:13;5.80;;;1.60;;
65033;SDS011;51601;51.356;12.458;2023-05-16T15:10:32;12.52;;;1.98;;
65033;SDS011;51601;51.356;12.458;2023-05-16T15:14:51;5.37;;;1.70;;
65033;SDS011;51601;51.356;12.458;2023-05-16T15:19:09;6.82;;;1.70;;
65033;SDS011;51601;51.356;12.458;2023-05-16T15:23:28;5.30;;;1.42;;
65033;SDS011;51601;51.356;12.458;2023-05-16T15:27:48;4.72;;;1.30;;
65033;SDS011;51601;51.356;12.458;2023-05-16T15:32:06;4.63;;;1.40;;
65033;SDS011;51601;51.356;12.458;2023-05-16T15:36:24;5.90;;;1.38;;
65033;SDS011;51601;51.356;12.458;2023-05-16T15:40:44;5.80;;;1.38;;
65033;SDS011;51601;51.356;12.458;2023-05-16T15:45:07;4.67;;;1.20;;
65033;SDS011;51601;51.356;12.458;2023-05-16T15:49:27;7.38;;;1.90;;
65033;SDS011;51601;51.356;12.458;2023-05-16T15:53:46;6.93;;;1.27;;
65033;SDS011;51601;51.356;12.458;2023-05-16T15:58:05;5.80;;;1.50;;
65033;SDS011;51601;51.356;12.458;2023-05-16T16:02:24;3.40;;;1.30;;
65033;SDS011;51601;51.356;12.458;2023-05-16T16:06:43;5.07;;;1.50;;
65033;SDS011;51601;51.356;12.458;2023-05-16T16:11:01;6.47;;;1.30;;
65033;SDS011;51601;51.356;12.458;2023-05-16T16:15:23;4.10;;;1.20;;
65033;SDS011;51601;51.356;12.458;2023-05-16T16:19:43;5.05;;;1.30;;
65033;SDS011;51601;51.356;12.458;2023-05-16T16:24:01;5.85;;;1.23;;
65033;SDS011;51601;51.356;12.458;2023-05-16T16:28:22;4.37;;;1.33;;
65033;SDS011;51601;51.356;12.458;2023-05-16T16:32:45;3.40;;;1.20;;
65033;SDS011;51601;51.356;12.458;2023-05-16T16:37:04;7.50;;;1.30;;
65033;SDS011;51601;51.356;12.458;2023-05-16T16:41:26;5.23;;;1.33;;
65033;SDS011;51601;51.356;12.458;2023-05-16T16:45:43;4.45;;;1.10;;
65033;SDS011;51601;51.356;12.458;2023-05-16T16:50:03;4.68;;;1.30;;
65033;SDS011;51601;51.356;12.458;2023-05-16T16:54:23;3.63;;;1.20;;
65033;SDS011;51601;51.356;12.458;2023-05-16T16:58:44;4.73;;;1.23;;
65033;SDS011;51601;51.356;12.458;2023-05-16T17:03:02;5.63;;;1.70;;
65033;SDS011;51601;51.356;12.458;2023-05-16T17:07:22;5.82;;;1.45;;
65033;SDS011;51601;51.356;12.458;2023-05-16T17:11:41;4.83;;;1.53;;
65033;SDS011;51601;51.356;12.458;2023-05-16T17:16:02;5.60;;;1.25;;
65033;SDS011;51601;51.356;12.458;2023-05-16T17:20:20;4.50;;;1.30;;
65033;SDS011;51601;51.356;12.458;2023-05-16T17:24:40;7.03;;;1.53;;
65033;SDS011;51601;51.356;12.458;2023-05-16T17:28:59;5.30;;;1.60;;
65033;SDS011;51601;51.356;12.458;2023-05-16T17:33:21;3.72;;;1.20;;
65033;SDS011;51601;51.356;12.458;2023-05-16T17:37:39;5.32;;;1.20;;
65033;SDS011;51601;51.356;12.458;2023-05-16T17:41:58;4.43;;;1.10;;
65033;SDS011;51601;51.356;12.458;2023-05-16T17:46:18;5.55;;;1.70;;
65033;SDS011;51601;51.356;12.458;2023-05-16T17:50:36;5.22;;;1.20;;
65033;SDS011;51601;51.356;12.458;2023-05-16T17:54:54;5.37;;;1.40;;
65033;SDS011;51601;51.356;12.458;2023-05-16T17:59:13;7.38;;;2.00;;
65033;SDS011;51601;51.356;12.458;2023-05-16T18:03:33;6.00;;;2.05;;
65033;SDS011;51601;51.356;12.458;2023-05-16T18:07:51;6.43;;;1.67;;
65033;SDS011;51601;51.356;12.458;2023-05-16T18:12:09;6.13;;;1.40;;
65033;SDS011;51601;51.356;12.458;2023-05-16T18:16:29;4.80;;;1.33;;
65033;SDS011;51601;51.356;12.458;2023-05-16T18:20:48;3.80;;;1.10;;
65033;SDS011;51601;51.356;12.458;2023-05-16T18:25:07;4.80;;;1.20;;
65033;SDS011;51601;51.356;12.458;2023-05-16T18:29:28;4.00;;;1.40;;
65033;SDS011;51601;51.356;12.458;2023-05-16T18:33:47;6.43;;;1.92;;
65033;SDS011;51601;51.356;12.458;2023-05-16T18:38:07;6.90;;;2.30;;
65033;SDS011;51601;51.356;12.458;2023-05-16T18:42:43;9.10;;;1.70;;
65033;SDS011;51601;51.356;12.458;2023-05-16T18:47:01;8.50;;;1.50;;
65033;SDS011;51601;51.356;12.458;2023-05-16T18:51:21;5.20;;;1.50;;
65033;SDS011;51601;51.356;12.458;2023-05-16T18:55:40;5.20;;;1.45;;
65033;SDS011;51601;51.356;12.458;2023-05-16T18:59:59;4.20;;;1.50;;
65033;SDS011;51601;51.356;12.458;2023-05-16T19:04:17;5.18;;;1.25;;
65033;SDS011;51601;51.356;12.458;2023-05-16T19:08:36;7.57;;;1.53;;
65033;SDS011;51601;51.356;12.458;2023-05-16T19:13:05;5.97;;;1.40;;
65033;SDS011;51601;51.356;12.458;2023-05-16T19:17:23;5.75;;;1.38;;
65033;SDS011;51601;51.356;12.458;2023-05-16T19:21:41;6.60;;;1.70;;
65033;SDS011;51601;51.356;12.458;2023-05-16T19:26:01;4.68;;;1.40;;
65033;SDS011;51601;51.356;12.458;2023-05-16T19:30:20;5.43;;;1.50;;
65033;SDS011;51601;51.356;12.458;2023-05-16T19:34:38;8.17;;;2.00;;
65033;SDS011;51601;51.356;12.458;2023-05-16T19:38:57;7.53;;;2.10;;
65033;SDS011;51601;51.356;12.458;2023-05-16T19:43:19;6.70;;;1.80;;
65033;SDS011;51601;51.356;12.458;2023-05-16T19:47:39;3.30;;;1.20;;
65033;SDS011;51601;51.356;12.458;2023-05-16T19:51:57;5.13;;;1.47;;
65033;SDS011;51601;51.356;12.458;2023-05-16T19:56:18;6.15;;;1.30;;
65033;SDS011;51601;51.356;12.458;2023-05-16T20:00:37;8.43;;;1.40;;
65033;SDS011;51601;51.356;12.458;2023-05-16T20:04:57;7.87;;;1.77;;
65033;SDS011;51601;51.356;12.458;2023-05-16T20:09:15;4.45;;;1.42;;
65033;SDS011;51601;51.356;12.458;2023-05-16T20:13:33;5.35;;;1.60;;
65033;SDS011;51601;51.356;12.458;2023-05-16T20:17:53;6.93;;;1.30;;
65033;SDS011;51601;51.356;12.458;2023-05-16T20:22:12;5.70;;;1.35;;
65033;SDS011;51601;51.356;12.458;2023-05-16T20:26:31;4.97;;;1.55;;
65033;SDS011;51601;51.356;12.458;2023-05-16T20:30:48;5.85;;;1.58;;
65033;SDS011;51601;51.356;12.458;2023-05-16T20:35:08;5.03;;;1.30;;
65033;SDS011;51601;51.356;12.458;2023-05-16T20:39:28;5.95;;;1.33;;
65033;SDS011;51601;51.356;12.458;2023-05-16T20:43:46;6.72;;;1.40;;
65033;SDS011;51601;51.356;12.458;2023-05-16T20:48:07;4.50;;;1.40;;
65033;SDS011;51601;51.356;12.458;2023-05-16T20:52:26;4.70;;;1.30;;
65033;SDS011;51601;51.356;12.458;2023-05-16T20:56:46;4.10;;;1.20;;
65033;SDS011;51601;51.356;12.458;2023-05-16T21:01:04;5.53;;;1.57;;
65033;SDS011;51601;51.356;12.458;2023-05-16T21:05:22;5.32;;;1.33;;
65033;SDS011;51601;51.356;12.458;2023-05-16T21:09:42;4.43;;;1.20;;
65033;SDS011;51601;51.356;12.458;2023-05-16T21:14:01;4.40;;;1.50;;
65033;SDS011;51601;51.356;12.458;2023-05-16T21:18:19;6.07;;;1.30;;
65033;SDS011;51601;51.356;12.458;2023-05-16T21:22:37;5.93;;;1.80;;
65033;SDS011;51601;51.356;12.458;2023-05-16T21:26:57;4.88;;;1.30;;
65033;SDS011;51601;51.356;12.458;2023-05-16T21:31:17;5.37;;;1.33;;
65033;SDS011;51601;51.356;12.458;2023-05-16T21:35:35;4.97;;;1.45;;
65033;SDS011;51601;51.356;12.458;2023-05-16T21:39:53;5.20;;;1.40;;
65033;SDS011;51601;51.356;12.458;2023-05-16T21:44:12;8.70;;;1.50;;
65033;SDS011;51601;51.356;12.458;2023-05-16T21:48:32;5.15;;;1.35;;
65033;SDS011;51601;51.356;12.458;2023-05-16T21:52:50;4.40;;;1.33;;
65033;SDS011;51601;51.356;12.458;2023-05-16T21:57:08;5.43;;;1.23;;
65033;SDS011;51601;51.356;12.458;2023-05-16T22:01:27;5.80;;;1.20;;
65033;SDS011;51601;51.356;12.458;2023-05-16T22:05:47;5.22;;;1.30;;
65033;SDS011;51601;51.356;12.458;2023-05-16T22:10:06;9.23;;;1.30;;
65033;SDS011;51601;51.356;12.458;2023-05-16T22:14:26;5.53;;;1.37;;
65033;SDS011;51601;51.356;12.458;2023-05-16T22:18:46;4.10;;;1.30;;
65033;SDS011;51601;51.356;12.458;2023-05-16T22:23:05;6.07;;;1.83;;
65033;SDS011;51601;51.356;12.458;2023-05-16T22:27:24;6.37;;;1.20;;
65033;SDS011;51601;51.356;12.458;2023-05-16T22:31:42;5.75;;;1.42;;
65033;SDS011;51601;51.356;12.458;2023-05-16T22:36:01;5.32;;;1.48;;
65033;SDS011;51601;51.356;12.458;2023-05-16T22:40:21;3.35;;;1.20;;
65033;SDS011;51601;51.356;12.458;2023-05-16T22:44:39;5.40;;;1.37;;
65033;SDS011;51601;51.356;12.458;2023-05-16T22:48:57;5.30;;;1.27;;
65033;SDS011;51601;51.356;12.458;2023-05-16T22:53:16;5.32;;;1.70;;
65033;SDS011;51601;51.356;12.458;2023-05-16T22:57:36;5.20;;;1.70;;
65033;SDS011;51601;51.356;12.458;2023-05-16T23:01:54;4.47;;;1.40;;
65033;SDS011;51601;51.356;12.458;2023-05-16T23:06:12;5.50;;;1.50;;
65033;SDS011;51601;51.356;12.458;2023-05-16T23:10:32;5.33;;;1.50;;
65033;SDS011;51601;51.356;12.458;2023-05-16T23:14:51;3.85;;;1.48;;
65033;SDS011;51601;51.356;12.458;2023-05-16T23:19:09;6.15;;;1.70;;
65033;SDS011;51601;51.356;12.458;2023-05-16T23:23:28;5.00;;;1.40;;
65033;SDS011;51601;51.356;12.458;2023-05-16T23:27:47;5.70;;;1.50;;
65033;SDS011;51601;51.356;12.458;2023-05-16T23:32:07;6.10;;;1.38;;
65033;SDS011;51601;51.356;12.458;2023-05-16T23:36:25;4.43;;;1.33;;
65033;SDS011;51601;51.356;12.458;2023-05-16T23:40:43;5.87;;;1.40;;
65033;SDS011;51601;51.356;12.458;2023-05-16T23:45:02;5.13;;;1.40;;
65033;SDS011;51601;51.356;12.458;2023-05-16T23:49:22;5.28;;;1.90;;
65033;SDS011;51601;51.356;12.458;2023-05-16T23:53:40;5.90;;;1.40;;
65033;SDS011;51601;51.356;12.458;2023-05-16T23:57:58;5.00;;;1.38;;
